Kelvedon, United Kingdom

10:25 AM BST on August 28, 2014 (GMT +0100)
IENGLAND66 | Change Station
CLOSE
Current Station
Personal Weather Station
Location: Kelvedon, ENGLAND
Elevation: 105 ft
Nearby Weather Stations

Elev 105 ft 51.84 °N, 0.70 °E | Updated 9 minutes ago

Mostly Cloudy
Mostly Cloudy
63.5 °F
Feels Like 63.5 °F
N
7.8
Wind Variable Wind from South
Gusts 0.0 mph

Today
High -- | Low -- °F
--% Chance of Precip.
Yesterday
High -- | Low -- °F
Precip. -- in
6:02 AM 7:53 PM
Waxing Crescent, 7% visible
Pressure 29.83 in
Visibility 4.3 miles
Clouds Few 300 ft
Mostly Cloudy 600 ft
Mostly Cloudy 2900 ft
Dew Point 61 °F
Humidity 93%
Rainfall 0.08 in
Snow Depth Not available.
UV 2 out of 12
Pollen Not available.
Air Quality Not available.
Flu Activity Not available.
METAR EGSS 280920Z 23010KT 7000 FEW003 BKN006 BKN029 18/17 Q1010

More Conditions Fewer Conditions

Pressure 29.83 in
Visibility 4.3 miles
Clouds Few 300 ft
Mostly Cloudy 600 ft
Mostly Cloudy 2900 ft
Dew Point 61 °F
Humidity 93%
Rainfall 0.08 in
Snow Depth Not available.
UV 2 out of 12
Pollen Not available.
Air Quality Not available.
Flu Activity Not available.
METAR EGSS 280920Z 23010KT 7000 FEW003 BKN006 BKN029 18/17 Q1010

More Conditions Fewer Conditions

10-Day Weather Forecast

Almanac

Astronomy

Aug. 28, 2014 Rise Set
Actual Time 6:02 AM BST 7:53 PM BST
Civil Twilight 5:26 AM BST 8:28 PM BST
Nautical Twilight 4:42 AM BST 9:12 PM BST
Astronomical Twilight 3:52 AM BST 10:02 PM BST
Moon 9:04 AM BST 8:42 PM BST
Length of Visible Light 15h 02m
Length of Day
13h 50m
Tomorrow will be 3m 49s shorter.
Waxing Crescent, 7% of the Moon is Illuminated
Today
Waxing Crescent
Sep 2
First Quarter
Sep 8
Full
Sep 15
Last Quarter
Sep 24
New

Yesterday's Extremes

Country Highs Country Lows

Community

WunderPhotos

Upload Photos

1,747,918 photos uploaded!

Nearby

Snow Depth

Not available.

Earthquake Activity

City Distance Mag. Time & Date
No recent earthquake activity has been reported nearby.
Minimum magnitude displayed is 2.5.

Coastal Water Temperatures

Place Temperature
No Stations Reporting

Nearby Weather Stations